Terminal Aerodrome Forecast
Issued by NWS

Home | Current Version | Previous Version | Graphics & Text | Print | Product List | Glossary Off
Versions: 1 2 3 4 5 6 7 8 9 10 11 12 13

000
FTUS43 KDDC 141700
TAFHYS
TAF
KHYS 141720Z 1418/1518 35020G30KT P6SM FEW200
     FM150000 33008KT P6SM SKC
     FM150400 26008KT P6SM SKC
     FM151700 22012G22KT P6SM SKC=

USA.gov is the U.S. government's official web portal to all federal, state and local government web resources and services.